sensor_id;sensor_type;location;lat;lon;timestamp;P1;durP1;ratioP1;P2;durP2;ratioP2
21733;SDS011;11029;47.820;10.534;2023-03-23T00:00:58;574.97;;;123.00;;
21733;SDS011;11029;47.820;10.534;2023-03-23T00:03:26;575.88;;;126.00;;
21733;SDS011;11029;47.820;10.534;2023-03-23T00:05:54;570.85;;;123.45;;
21733;SDS011;11029;47.820;10.534;2023-03-23T00:08:24;562.03;;;118.57;;
21733;SDS011;11029;47.820;10.534;2023-03-23T00:10:51;566.50;;;118.43;;
21733;SDS011;11029;47.820;10.534;2023-03-23T00:13:22;560.92;;;116.72;;
21733;SDS011;11029;47.820;10.534;2023-03-23T00:15:52;555.00;;;111.53;;
21733;SDS011;11029;47.820;10.534;2023-03-23T00:18:18;564.92;;;119.55;;
21733;SDS011;11029;47.820;10.534;2023-03-23T00:20:51;561.40;;;117.50;;
21733;SDS011;11029;47.820;10.534;2023-03-23T00:23:19;572.70;;;122.15;;
21733;SDS011;11029;47.820;10.534;2023-03-23T00:25:48;567.30;;;121.32;;
21733;SDS011;11029;47.820;10.534;2023-03-23T00:28:18;571.33;;;119.03;;
21733;SDS011;11029;47.820;10.534;2023-03-23T00:30:56;399.25;;;82.13;;
21733;SDS011;11029;47.820;10.534;2023-03-23T00:33:26;567.72;;;116.82;;
21733;SDS011;11029;47.820;10.534;2023-03-23T00:35:54;561.50;;;115.85;;
21733;SDS011;11029;47.820;10.534;2023-03-23T00:38:21;561.80;;;109.75;;
21733;SDS011;11029;47.820;10.534;2023-03-23T00:40:48;554.22;;;109.20;;
21733;SDS011;11029;47.820;10.534;2023-03-23T00:43:18;568.78;;;119.13;;
21733;SDS011;11029;47.820;10.534;2023-03-23T00:45:44;558.60;;;112.32;;
21733;SDS011;11029;47.820;10.534;2023-03-23T00:48:24;565.65;;;114.72;;
21733;SDS011;11029;47.820;10.534;2023-03-23T00:50:51;565.10;;;112.70;;
21733;SDS011;11029;47.820;10.534;2023-03-23T00:53:17;569.00;;;117.13;;
21733;SDS011;11029;47.820;10.534;2023-03-23T00:55:44;563.08;;;114.38;;
21733;SDS011;11029;47.820;10.534;2023-03-23T00:58:11;559.90;;;112.28;;
21733;SDS011;11029;47.820;10.534;2023-03-23T01:00:38;560.15;;;112.28;;
21733;SDS011;11029;47.820;10.534;2023-03-23T01:03:04;4.40;;;2.60;;
21733;SDS011;11029;47.820;10.534;2023-03-23T01:05:34;540.00;;;109.53;;
21733;SDS011;11029;47.820;10.534;2023-03-23T01:08:02;552.20;;;118.25;;
21733;SDS011;11029;47.820;10.534;2023-03-23T01:10:29;542.45;;;113.43;;
21733;SDS011;11029;47.820;10.534;2023-03-23T01:13:01;502.80;;;91.80;;
21733;SDS011;11029;47.820;10.534;2023-03-23T01:15:27;496.77;;;88.13;;
21733;SDS011;11029;47.820;10.534;2023-03-23T01:17:54;353.85;;;65.43;;
21733;SDS011;11029;47.820;10.534;2023-03-23T01:20:20;494.98;;;88.95;;
21733;SDS011;11029;47.820;10.534;2023-03-23T01:22:47;360.00;;;66.90;;
21733;SDS011;11029;47.820;10.534;2023-03-23T01:25:13;507.58;;;90.13;;
21733;SDS011;11029;47.820;10.534;2023-03-23T01:27:39;505.75;;;91.03;;
21733;SDS011;11029;47.820;10.534;2023-03-23T01:30:06;506.23;;;93.35;;
21733;SDS011;11029;47.820;10.534;2023-03-23T01:32:35;515.15;;;96.55;;
21733;SDS011;11029;47.820;10.534;2023-03-23T01:35:01;514.33;;;95.82;;
21733;SDS011;11029;47.820;10.534;2023-03-23T01:37:28;514.17;;;95.10;;
21733;SDS011;11029;47.820;10.534;2023-03-23T01:39:55;522.17;;;100.30;;
21733;SDS011;11029;47.820;10.534;2023-03-23T01:42:25;516.95;;;95.03;;
21733;SDS011;11029;47.820;10.534;2023-03-23T01:45:38;7.70;;;3.72;;
21733;SDS011;11029;47.820;10.534;2023-03-23T01:50:36;524.45;;;114.10;;
21733;SDS011;11029;47.820;10.534;2023-03-23T01:53:18;8.13;;;3.55;;
21733;SDS011;11029;47.820;10.534;2023-03-23T01:55:45;8.48;;;3.67;;
21733;SDS011;11029;47.820;10.534;2023-03-23T01:58:16;8.10;;;3.15;;
21733;SDS011;11029;47.820;10.534;2023-03-23T02:00:45;8.30;;;3.65;;
21733;SDS011;11029;47.820;10.534;2023-03-23T02:03:13;7.25;;;2.08;;
21733;SDS011;11029;47.820;10.534;2023-03-23T02:05:48;7.50;;;2.08;;
21733;SDS011;11029;47.820;10.534;2023-03-23T02:08:21;7.75;;;2.72;;
21733;SDS011;11029;47.820;10.534;2023-03-23T02:10:48;512.35;;;107.50;;
21733;SDS011;11029;47.820;10.534;2023-03-23T02:13:14;490.25;;;86.95;;
21733;SDS011;11029;47.820;10.534;2023-03-23T02:15:43;358.83;;;69.88;;
21733;SDS011;11029;47.820;10.534;2023-03-23T02:20:57;8.00;;;3.60;;
21733;SDS011;11029;47.820;10.534;2023-03-23T02:28:56;9.30;;;5.00;;
21733;SDS011;11029;47.820;10.534;2023-03-23T02:34:27;7.75;;;3.15;;
21733;SDS011;11029;47.820;10.534;2023-03-23T02:37:11;7.82;;;3.33;;
21733;SDS011;11029;47.820;10.534;2023-03-23T02:39:49;87.32;;;19.23;;
21733;SDS011;11029;47.820;10.534;2023-03-23T02:42:20;356.88;;;80.38;;
21733;SDS011;11029;47.820;10.534;2023-03-23T02:44:51;8.63;;;4.18;;
21733;SDS011;11029;47.820;10.534;2023-03-23T02:47:20;7.53;;;2.92;;
21733;SDS011;11029;47.820;10.534;2023-03-23T02:49:52;8.10;;;2.88;;
21733;SDS011;11029;47.820;10.534;2023-03-23T02:52:21;7.82;;;3.22;;
21733;SDS011;11029;47.820;10.534;2023-03-23T02:54:56;7.85;;;3.40;;
21733;SDS011;11029;47.820;10.534;2023-03-23T02:57:25;8.05;;;3.13;;
21733;SDS011;11029;47.820;10.534;2023-03-23T02:59:53;8.38;;;4.22;;
21733;SDS011;11029;47.820;10.534;2023-03-23T03:04:53;8.82;;;4.13;;
21733;SDS011;11029;47.820;10.534;2023-03-23T03:07:27;7.93;;;1.98;;
21733;SDS011;11029;47.820;10.534;2023-03-23T03:12:44;8.00;;;3.00;;
21733;SDS011;11029;47.820;10.534;2023-03-23T03:18:05;8.60;;;4.22;;
21733;SDS011;11029;47.820;10.534;2023-03-23T03:20:38;8.48;;;3.40;;
21733;SDS011;11029;47.820;10.534;2023-03-23T03:23:09;8.38;;;2.75;;
21733;SDS011;11029;47.820;10.534;2023-03-23T03:25:40;8.10;;;2.63;;
21733;SDS011;11029;47.820;10.534;2023-03-23T03:28:19;8.35;;;3.55;;
21733;SDS011;11029;47.820;10.534;2023-03-23T03:30:49;8.52;;;3.53;;
21733;SDS011;11029;47.820;10.534;2023-03-23T03:33:20;8.35;;;3.03;;
21733;SDS011;11029;47.820;10.534;2023-03-23T03:35:54;7.97;;;3.30;;
21733;SDS011;11029;47.820;10.534;2023-03-23T03:38:21;7.88;;;3.25;;
21733;SDS011;11029;47.820;10.534;2023-03-23T03:40:49;8.00;;;3.50;;
21733;SDS011;11029;47.820;10.534;2023-03-23T03:43:15;7.72;;;3.13;;
21733;SDS011;11029;47.820;10.534;2023-03-23T03:45:41;7.60;;;2.92;;
21733;SDS011;11029;47.820;10.534;2023-03-23T03:48:07;8.38;;;4.18;;
21733;SDS011;11029;47.820;10.534;2023-03-23T03:50:33;7.63;;;3.22;;
21733;SDS011;11029;47.820;10.534;2023-03-23T03:52:59;8.27;;;4.43;;
21733;SDS011;11029;47.820;10.534;2023-03-23T03:55:25;7.93;;;3.47;;
21733;SDS011;11029;47.820;10.534;2023-03-23T03:57:56;7.53;;;2.88;;
21733;SDS011;11029;47.820;10.534;2023-03-23T04:00:59;7.85;;;3.85;;
21733;SDS011;11029;47.820;10.534;2023-03-23T04:03:30;6.57;;;3.85;;
21733;SDS011;11029;47.820;10.534;2023-03-23T04:06:02;6.85;;;4.78;;
21733;SDS011;11029;47.820;10.534;2023-03-23T04:08:29;8.43;;;4.28;;
21733;SDS011;11029;47.820;10.534;2023-03-23T04:10:55;8.50;;;3.58;;
21733;SDS011;11029;47.820;10.534;2023-03-23T04:13:22;7.75;;;3.47;;
21733;SDS011;11029;47.820;10.534;2023-03-23T04:15:47;7.90;;;3.45;;
21733;SDS011;11029;47.820;10.534;2023-03-23T04:18:14;8.05;;;4.07;;
21733;SDS011;11029;47.820;10.534;2023-03-23T04:20:44;7.20;;;5.15;;
21733;SDS011;11029;47.820;10.534;2023-03-23T04:23:13;3.70;;;2.70;;
21733;SDS011;11029;47.820;10.534;2023-03-23T04:25:45;3.78;;;2.92;;
21733;SDS011;11029;47.820;10.534;2023-03-23T04:28:12;4.47;;;3.60;;
21733;SDS011;11029;47.820;10.534;2023-03-23T04:30:48;4.30;;;3.60;;
21733;SDS011;11029;47.820;10.534;2023-03-23T04:33:18;3.92;;;2.97;;
21733;SDS011;11029;47.820;10.534;2023-03-23T04:35:46;3.72;;;2.78;;
21733;SDS011;11029;47.820;10.534;2023-03-23T04:38:18;4.00;;;2.80;;
21733;SDS011;11029;47.820;10.534;2023-03-23T04:40:50;3.75;;;2.20;;
21733;SDS011;11029;47.820;10.534;2023-03-23T04:43:37;3.80;;;2.65;;
21733;SDS011;11029;47.820;10.534;2023-03-23T04:46:25;3.90;;;2.78;;
21733;SDS011;11029;47.820;10.534;2023-03-23T04:48:55;3.90;;;2.65;;
21733;SDS011;11029;47.820;10.534;2023-03-23T04:51:28;3.78;;;2.60;;
21733;SDS011;11029;47.820;10.534;2023-03-23T04:53:59;4.90;;;4.10;;
21733;SDS011;11029;47.820;10.534;2023-03-23T04:56:27;3.70;;;2.38;;
21733;SDS011;11029;47.820;10.534;2023-03-23T04:58:55;4.50;;;2.75;;
21733;SDS011;11029;47.820;10.534;2023-03-23T05:01:33;4.63;;;2.88;;
21733;SDS011;11029;47.820;10.534;2023-03-23T05:04:20;5.63;;;4.07;;
21733;SDS011;11029;47.820;10.534;2023-03-23T05:07:07;4.47;;;2.83;;
21733;SDS011;11029;47.820;10.534;2023-03-23T05:09:39;4.07;;;3.00;;
21733;SDS011;11029;47.820;10.534;2023-03-23T05:12:06;4.55;;;2.85;;
21733;SDS011;11029;47.820;10.534;2023-03-23T05:14:41;3.80;;;1.98;;
21733;SDS011;11029;47.820;10.534;2023-03-23T05:17:10;8.75;;;7.63;;
21733;SDS011;11029;47.820;10.534;2023-03-23T05:19:35;3.60;;;2.05;;
21733;SDS011;11029;47.820;10.534;2023-03-23T05:22:11;4.22;;;2.45;;
21733;SDS011;11029;47.820;10.534;2023-03-23T05:24:44;4.28;;;2.60;;
21733;SDS011;11029;47.820;10.534;2023-03-23T05:27:10;7.57;;;6.53;;
21733;SDS011;11029;47.820;10.534;2023-03-23T05:29:39;4.15;;;2.40;;
21733;SDS011;11029;47.820;10.534;2023-03-23T05:32:07;4.88;;;3.15;;
21733;SDS011;11029;47.820;10.534;2023-03-23T05:34:35;3.92;;;2.33;;
21733;SDS011;11029;47.820;10.534;2023-03-23T05:37:02;4.80;;;3.63;;
21733;SDS011;11029;47.820;10.534;2023-03-23T05:39:44;4.15;;;2.65;;
21733;SDS011;11029;47.820;10.534;2023-03-23T05:42:34;3.88;;;2.58;;
21733;SDS011;11029;47.820;10.534;2023-03-23T05:45:10;4.68;;;3.50;;
21733;SDS011;11029;47.820;10.534;2023-03-23T05:47:37;5.90;;;3.65;;
21733;SDS011;11029;47.820;10.534;2023-03-23T05:50:09;4.35;;;3.63;;
21733;SDS011;11029;47.820;10.534;2023-03-23T05:52:36;4.30;;;2.60;;
21733;SDS011;11029;47.820;10.534;2023-03-23T05:55:06;4.20;;;2.53;;
21733;SDS011;11029;47.820;10.534;2023-03-23T05:57:35;4.35;;;2.63;;
21733;SDS011;11029;47.820;10.534;2023-03-23T06:00:04;5.40;;;4.05;;
21733;SDS011;11029;47.820;10.534;2023-03-23T06:02:46;3.40;;;2.17;;
21733;SDS011;11029;47.820;10.534;2023-03-23T06:05:19;4.97;;;3.70;;
21733;SDS011;11029;47.820;10.534;2023-03-23T06:07:49;4.10;;;2.65;;
21733;SDS011;11029;47.820;10.534;2023-03-23T06:10:15;4.13;;;2.83;;
21733;SDS011;11029;47.820;10.534;2023-03-23T06:12:45;4.13;;;2.95;;
21733;SDS011;11029;47.820;10.534;2023-03-23T06:15:23;3.72;;;2.20;;
21733;SDS011;11029;47.820;10.534;2023-03-23T06:17:59;4.75;;;3.72;;
21733;SDS011;11029;47.820;10.534;2023-03-23T06:20:32;3.80;;;2.58;;
21733;SDS011;11029;47.820;10.534;2023-03-23T06:23:03;3.85;;;2.90;;
21733;SDS011;11029;47.820;10.534;2023-03-23T06:25:31;2.67;;;1.05;;
21733;SDS011;11029;47.820;10.534;2023-03-23T06:27:58;4.18;;;3.00;;
21733;SDS011;11029;47.820;10.534;2023-03-23T06:30:24;3.35;;;2.03;;
21733;SDS011;11029;47.820;10.534;2023-03-23T06:32:52;3.75;;;2.47;;
21733;SDS011;11029;47.820;10.534;2023-03-23T06:35:32;3.63;;;2.25;;
21733;SDS011;11029;47.820;10.534;2023-03-23T06:38:12;3.25;;;1.95;;
21733;SDS011;11029;47.820;10.534;2023-03-23T06:40:52;3.83;;;2.65;;
21733;SDS011;11029;47.820;10.534;2023-03-23T06:43:18;7.50;;;2.55;;
21733;SDS011;11029;47.820;10.534;2023-03-23T06:45:50;6.73;;;4.40;;
21733;SDS011;11029;47.820;10.534;2023-03-23T06:48:31;6.93;;;4.07;;
21733;SDS011;11029;47.820;10.534;2023-03-23T06:50:58;7.10;;;4.32;;
21733;SDS011;11029;47.820;10.534;2023-03-23T06:53:25;6.28;;;3.97;;
21733;SDS011;11029;47.820;10.534;2023-03-23T06:55:54;6.32;;;4.03;;
21733;SDS011;11029;47.820;10.534;2023-03-23T06:58:19;7.15;;;3.70;;
21733;SDS011;11029;47.820;10.534;2023-03-23T07:00:47;8.02;;;4.03;;
21733;SDS011;11029;47.820;10.534;2023-03-23T07:03:15;5.63;;;4.10;;
21733;SDS011;11029;47.820;10.534;2023-03-23T07:05:41;5.80;;;4.38;;
21733;SDS011;11029;47.820;10.534;2023-03-23T07:08:11;7.13;;;4.03;;
21733;SDS011;11029;47.820;10.534;2023-03-23T07:10:45;16.73;;;6.95;;
21733;SDS011;11029;47.820;10.534;2023-03-23T07:13:12;15.02;;;7.50;;
21733;SDS011;11029;47.820;10.534;2023-03-23T07:15:45;14.65;;;7.32;;
21733;SDS011;11029;47.820;10.534;2023-03-23T07:18:11;18.17;;;9.93;;
21733;SDS011;11029;47.820;10.534;2023-03-23T07:20:46;19.00;;;11.32;;
21733;SDS011;11029;47.820;10.534;2023-03-23T07:23:14;19.55;;;12.48;;
21733;SDS011;11029;47.820;10.534;2023-03-23T07:25:45;18.02;;;12.00;;
21733;SDS011;11029;47.820;10.534;2023-03-23T07:28:16;13.38;;;8.85;;
21733;SDS011;11029;47.820;10.534;2023-03-23T07:30:42;6.10;;;5.03;;
21733;SDS011;11029;47.820;10.534;2023-03-23T07:33:09;6.57;;;2.92;;
21733;SDS011;11029;47.820;10.534;2023-03-23T07:35:36;3.63;;;3.03;;
21733;SDS011;11029;47.820;10.534;2023-03-23T07:38:06;6.43;;;4.53;;
21733;SDS011;11029;47.820;10.534;2023-03-23T07:40:33;7.72;;;5.43;;
21733;SDS011;11029;47.820;10.534;2023-03-23T07:43:04;7.70;;;4.50;;
21733;SDS011;11029;47.820;10.534;2023-03-23T07:45:59;5.47;;;3.00;;
21733;SDS011;11029;47.820;10.534;2023-03-23T07:48:33;3.60;;;2.40;;
21733;SDS011;11029;47.820;10.534;2023-03-23T07:50:59;5.78;;;2.60;;
21733;SDS011;11029;47.820;10.534;2023-03-23T07:53:27;3.38;;;2.47;;
21733;SDS011;11029;47.820;10.534;2023-03-23T07:56:04;6.05;;;2.55;;
21733;SDS011;11029;47.820;10.534;2023-03-23T07:58:50;2.65;;;2.30;;
21733;SDS011;11029;47.820;10.534;2023-03-23T08:01:16;4.65;;;2.65;;
21733;SDS011;11029;47.820;10.534;2023-03-23T08:03:56;3.28;;;2.45;;
21733;SDS011;11029;47.820;10.534;2023-03-23T08:06:45;5.20;;;2.70;;
21733;SDS011;11029;47.820;10.534;2023-03-23T08:09:31;3.42;;;3.08;;
21733;SDS011;11029;47.820;10.534;2023-03-23T08:12:26;4.22;;;3.70;;
21733;SDS011;11029;47.820;10.534;2023-03-23T08:15:18;3.90;;;3.50;;
21733;SDS011;11029;47.820;10.534;2023-03-23T08:18:04;4.07;;;3.35;;
21733;SDS011;11029;47.820;10.534;2023-03-23T08:20:49;4.03;;;3.05;;
21733;SDS011;11029;47.820;10.534;2023-03-23T08:23:33;4.28;;;3.30;;
21733;SDS011;11029;47.820;10.534;2023-03-23T08:26:19;3.53;;;3.10;;
21733;SDS011;11029;47.820;10.534;2023-03-23T08:28:53;8.90;;;4.13;;
21733;SDS011;11029;47.820;10.534;2023-03-23T08:31:28;5.38;;;3.92;;
21733;SDS011;11029;47.820;10.534;2023-03-23T08:34:01;4.45;;;2.83;;
21733;SDS011;11029;47.820;10.534;2023-03-23T08:36:29;3.60;;;2.90;;
21733;SDS011;11029;47.820;10.534;2023-03-23T08:39:06;4.22;;;2.80;;
21733;SDS011;11029;47.820;10.534;2023-03-23T08:41:53;5.00;;;3.92;;
21733;SDS011;11029;47.820;10.534;2023-03-23T08:44:57;4.35;;;2.47;;
21733;SDS011;11029;47.820;10.534;2023-03-23T08:47:43;3.22;;;2.10;;
21733;SDS011;11029;47.820;10.534;2023-03-23T08:50:32;3.65;;;2.58;;
21733;SDS011;11029;47.820;10.534;2023-03-23T08:53:21;3.53;;;2.35;;
21733;SDS011;11029;47.820;10.534;2023-03-23T08:55:48;4.55;;;2.40;;
21733;SDS011;11029;47.820;10.534;2023-03-23T08:58:34;2.65;;;2.45;;
21733;SDS011;11029;47.820;10.534;2023-03-23T09:01:09;4.60;;;2.53;;
21733;SDS011;11029;47.820;10.534;2023-03-23T09:03:41;3.78;;;3.05;;
21733;SDS011;11029;47.820;10.534;2023-03-23T09:06:23;4.75;;;2.70;;
21733;SDS011;11029;47.820;10.534;2023-03-23T09:08:48;4.03;;;3.03;;
21733;SDS011;11029;47.820;10.534;2023-03-23T09:11:15;5.20;;;3.17;;
21733;SDS011;11029;47.820;10.534;2023-03-23T09:13:41;4.25;;;3.25;;
21733;SDS011;11029;47.820;10.534;2023-03-23T09:16:07;15.10;;;3.97;;
21733;SDS011;11029;47.820;10.534;2023-03-23T09:18:33;5.63;;;3.30;;
21733;SDS011;11029;47.820;10.534;2023-03-23T09:21:00;6.30;;;3.63;;
21733;SDS011;11029;47.820;10.534;2023-03-23T09:23:28;4.18;;;3.50;;
21733;SDS011;11029;47.820;10.534;2023-03-23T09:25:55;6.55;;;3.90;;
21733;SDS011;11029;47.820;10.534;2023-03-23T09:28:20;5.60;;;4.10;;
21733;SDS011;11029;47.820;10.534;2023-03-23T09:30:46;7.45;;;3.95;;
21733;SDS011;11029;47.820;10.534;2023-03-23T09:33:12;7.78;;;4.50;;
21733;SDS011;11029;47.820;10.534;2023-03-23T09:35:39;5.82;;;4.10;;
21733;SDS011;11029;47.820;10.534;2023-03-23T09:38:07;5.18;;;3.70;;
21733;SDS011;11029;47.820;10.534;2023-03-23T09:51:21;6.40;;;3.57;;
21733;SDS011;11029;47.820;10.534;2023-03-23T09:56:50;5.10;;;3.28;;
21733;SDS011;11029;47.820;10.534;2023-03-23T09:59:19;5.03;;;4.00;;
21733;SDS011;11029;47.820;10.534;2023-03-23T10:01:47;5.25;;;4.18;;
21733;SDS011;11029;47.820;10.534;2023-03-23T10:04:27;4.70;;;3.85;;
21733;SDS011;11029;47.820;10.534;2023-03-23T10:07:14;5.88;;;3.65;;
21733;SDS011;11029;47.820;10.534;2023-03-23T10:09:43;6.50;;;4.00;;
21733;SDS011;11029;47.820;10.534;2023-03-23T10:12:25;4.97;;;3.70;;
21733;SDS011;11029;47.820;10.534;2023-03-23T10:17:40;4.05;;;3.10;;
21733;SDS011;11029;47.820;10.534;2023-03-23T10:23:23;5.20;;;2.80;;
21733;SDS011;11029;47.820;10.534;2023-03-23T10:26:04;3.70;;;3.08;;
21733;SDS011;11029;47.820;10.534;2023-03-23T10:29:16;4.07;;;3.30;;
21733;SDS011;11029;47.820;10.534;2023-03-23T10:32:00;5.60;;;3.47;;
21733;SDS011;11029;47.820;10.534;2023-03-23T10:37:17;4.20;;;3.38;;
21733;SDS011;11029;47.820;10.534;2023-03-23T10:39:51;4.65;;;3.20;;
21733;SDS011;11029;47.820;10.534;2023-03-23T10:47:55;4.70;;;3.47;;
21733;SDS011;11029;47.820;10.534;2023-03-23T10:50:38;3.90;;;3.35;;
21733;SDS011;11029;47.820;10.534;2023-03-23T10:53:11;4.15;;;3.35;;
21733;SDS011;11029;47.820;10.534;2023-03-23T10:55:58;4.63;;;3.13;;
21733;SDS011;11029;47.820;10.534;2023-03-23T10:58:29;4.15;;;3.38;;
21733;SDS011;11029;47.820;10.534;2023-03-23T11:01:01;4.53;;;3.58;;
21733;SDS011;11029;47.820;10.534;2023-03-23T11:03:34;6.50;;;3.35;;
21733;SDS011;11029;47.820;10.534;2023-03-23T11:06:05;3.90;;;3.20;;
21733;SDS011;11029;47.820;10.534;2023-03-23T11:11:38;4.63;;;3.50;;
21733;SDS011;11029;47.820;10.534;2023-03-23T11:14:19;3.65;;;3.15;;
21733;SDS011;11029;47.820;10.534;2023-03-23T11:16:57;4.20;;;2.88;;
21733;SDS011;11029;47.820;10.534;2023-03-23T11:19:28;3.35;;;3.05;;
21733;SDS011;11029;47.820;10.534;2023-03-23T11:24:33;5.40;;;3.60;;
21733;SDS011;11029;47.820;10.534;2023-03-23T11:27:01;3.83;;;3.38;;
21733;SDS011;11029;47.820;10.534;2023-03-23T11:29:32;4.85;;;3.28;;
21733;SDS011;11029;47.820;10.534;2023-03-23T11:34:25;3.55;;;3.25;;
21733;SDS011;11029;47.820;10.534;2023-03-23T11:37:07;4.13;;;3.55;;
21733;SDS011;11029;47.820;10.534;2023-03-23T11:45:18;5.50;;;3.20;;
21733;SDS011;11029;47.820;10.534;2023-03-23T11:53:27;2.35;;;2.15;;
21733;SDS011;11029;47.820;10.534;2023-03-23T11:56:06;2.53;;;1.95;;
21733;SDS011;11029;47.820;10.534;2023-03-23T11:58:38;2.13;;;1.48;;
21733;SDS011;11029;47.820;10.534;2023-03-23T12:01:18;2.78;;;1.85;;
21733;SDS011;11029;47.820;10.534;2023-03-23T12:03:56;2.17;;;1.40;;
21733;SDS011;11029;47.820;10.534;2023-03-23T12:09:28;2.55;;;1.60;;
21733;SDS011;11029;47.820;10.534;2023-03-23T12:15:19;2.50;;;1.40;;
21733;SDS011;11029;47.820;10.534;2023-03-23T12:20:40;3.30;;;1.30;;
21733;SDS011;11029;47.820;10.534;2023-03-23T12:32:00;2.28;;;1.30;;
21733;SDS011;11029;47.820;10.534;2023-03-23T12:34:50;2.28;;;1.20;;
21733;SDS011;11029;47.820;10.534;2023-03-23T12:37:23;1.88;;;1.50;;
21733;SDS011;11029;47.820;10.534;2023-03-23T12:48:11;3.03;;;1.70;;
21733;SDS011;11029;47.820;10.534;2023-03-23T12:50:43;1.98;;;1.60;;
21733;SDS011;11029;47.820;10.534;2023-03-23T12:53:30;3.92;;;1.70;;
21733;SDS011;11029;47.820;10.534;2023-03-23T12:58:37;2.72;;;2.00;;
21733;SDS011;11029;47.820;10.534;2023-03-23T13:03:58;3.70;;;1.70;;
21733;SDS011;11029;47.820;10.534;2023-03-23T13:08:58;1.77;;;1.65;;
21733;SDS011;11029;47.820;10.534;2023-03-23T13:17:06;7.97;;;4.38;;
21733;SDS011;11029;47.820;10.534;2023-03-23T13:22:42;3.08;;;2.10;;
21733;SDS011;11029;47.820;10.534;2023-03-23T13:25:22;3.78;;;1.80;;
21733;SDS011;11029;47.820;10.534;2023-03-23T13:28:21;2.03;;;1.73;;
21733;SDS011;11029;47.820;10.534;2023-03-23T13:31:04;2.40;;;1.70;;
21733;SDS011;11029;47.820;10.534;2023-03-23T13:33:45;3.58;;;2.08;;
21733;SDS011;11029;47.820;10.534;2023-03-23T13:36:15;4.88;;;1.90;;
21733;SDS011;11029;47.820;10.534;2023-03-23T13:38:57;4.95;;;2.10;;
21733;SDS011;11029;47.820;10.534;2023-03-23T13:41:24;3.03;;;1.95;;
21733;SDS011;11029;47.820;10.534;2023-03-23T13:43:52;2.22;;;1.98;;
21733;SDS011;11029;47.820;10.534;2023-03-23T13:46:29;2.00;;;1.80;;
21733;SDS011;11029;47.820;10.534;2023-03-23T13:49:15;3.05;;;2.00;;
21733;SDS011;11029;47.820;10.534;2023-03-23T13:56:55;5.30;;;2.10;;
21733;SDS011;11029;47.820;10.534;2023-03-23T14:02:26;3.95;;;1.98;;
21733;SDS011;11029;47.820;10.534;2023-03-23T14:05:07;2.90;;;2.08;;
21733;SDS011;11029;47.820;10.534;2023-03-23T14:10:54;3.65;;;1.77;;
21733;SDS011;11029;47.820;10.534;2023-03-23T14:13:31;3.50;;;2.00;;
21733;SDS011;11029;47.820;10.534;2023-03-23T14:16:02;5.15;;;1.60;;
21733;SDS011;11029;47.820;10.534;2023-03-23T14:18:31;2.65;;;1.92;;
21733;SDS011;11029;47.820;10.534;2023-03-23T14:21:02;1.85;;;1.75;;
21733;SDS011;11029;47.820;10.534;2023-03-23T14:23:30;3.08;;;1.80;;
21733;SDS011;11029;47.820;10.534;2023-03-23T14:26:05;2.83;;;1.88;;
21733;SDS011;11029;47.820;10.534;2023-03-23T14:28:41;1.70;;;1.50;;
21733;SDS011;11029;47.820;10.534;2023-03-23T14:31:14;4.03;;;1.95;;
21733;SDS011;11029;47.820;10.534;2023-03-23T14:33:51;4.03;;;1.83;;
21733;SDS011;11029;47.820;10.534;2023-03-23T14:36:23;4.20;;;1.65;;
21733;SDS011;11029;47.820;10.534;2023-03-23T14:39:04;1.95;;;1.40;;
21733;SDS011;11029;47.820;10.534;2023-03-23T14:41:37;1.95;;;1.38;;
21733;SDS011;11029;47.820;10.534;2023-03-23T14:44:05;4.22;;;1.52;;
21733;SDS011;11029;47.820;10.534;2023-03-23T14:46:33;2.10;;;1.30;;
21733;SDS011;11029;47.820;10.534;2023-03-23T14:49:04;1.42;;;1.33;;
21733;SDS011;11029;47.820;10.534;2023-03-23T14:51:31;2.35;;;1.58;;
21733;SDS011;11029;47.820;10.534;2023-03-23T14:53:58;2.78;;;1.70;;
21733;SDS011;11029;47.820;10.534;2023-03-23T14:56:33;2.70;;;1.67;;
21733;SDS011;11029;47.820;10.534;2023-03-23T14:59:03;2.25;;;1.83;;
21733;SDS011;11029;47.820;10.534;2023-03-23T15:01:31;1.48;;;1.38;;
21733;SDS011;11029;47.820;10.534;2023-03-23T15:04:01;2.40;;;1.75;;
21733;SDS011;11029;47.820;10.534;2023-03-23T15:06:42;4.10;;;2.55;;
21733;SDS011;11029;47.820;10.534;2023-03-23T15:09:12;2.53;;;2.17;;
21733;SDS011;11029;47.820;10.534;2023-03-23T15:11:41;3.80;;;1.80;;
21733;SDS011;11029;47.820;10.534;2023-03-23T15:14:09;3.17;;;2.45;;
21733;SDS011;11029;47.820;10.534;2023-03-23T15:16:48;6.78;;;4.13;;
21733;SDS011;11029;47.820;10.534;2023-03-23T15:19:21;3.30;;;2.63;;
21733;SDS011;11029;47.820;10.534;2023-03-23T15:21:54;1.98;;;1.77;;
21733;SDS011;11029;47.820;10.534;2023-03-23T15:24:51;4.72;;;2.10;;
21733;SDS011;11029;47.820;10.534;2023-03-23T15:27:44;5.82;;;2.75;;
21733;SDS011;11029;47.820;10.534;2023-03-23T15:30:33;4.00;;;2.75;;
21733;SDS011;11029;47.820;10.534;2023-03-23T15:33:03;4.32;;;1.90;;
21733;SDS011;11029;47.820;10.534;2023-03-23T15:35:36;2.50;;;1.85;;
21733;SDS011;11029;47.820;10.534;2023-03-23T15:38:05;6.40;;;2.97;;
21733;SDS011;11029;47.820;10.534;2023-03-23T15:40:38;2.20;;;1.92;;
21733;SDS011;11029;47.820;10.534;2023-03-23T15:43:14;3.88;;;2.35;;
21733;SDS011;11029;47.820;10.534;2023-03-23T15:45:56;3.78;;;2.20;;
21733;SDS011;11029;47.820;10.534;2023-03-23T15:48:32;3.85;;;2.17;;
21733;SDS011;11029;47.820;10.534;2023-03-23T15:51:10;3.75;;;2.45;;
21733;SDS011;11029;47.820;10.534;2023-03-23T15:53:38;3.83;;;2.28;;
21733;SDS011;11029;47.820;10.534;2023-03-23T15:56:05;4.20;;;2.45;;
21733;SDS011;11029;47.820;10.534;2023-03-23T15:58:33;1.80;;;1.70;;
21733;SDS011;11029;47.820;10.534;2023-03-23T16:01:09;2.40;;;2.15;;
21733;SDS011;11029;47.820;10.534;2023-03-23T16:03:45;4.57;;;2.90;;
21733;SDS011;11029;47.820;10.534;2023-03-23T16:06:15;10.82;;;5.80;;
21733;SDS011;11029;47.820;10.534;2023-03-23T16:08:51;7.35;;;4.97;;
21733;SDS011;11029;47.820;10.534;2023-03-23T16:11:20;2.65;;;2.45;;
21733;SDS011;11029;47.820;10.534;2023-03-23T16:13:48;3.22;;;2.20;;
21733;SDS011;11029;47.820;10.534;2023-03-23T16:16:16;2.72;;;2.08;;
21733;SDS011;11029;47.820;10.534;2023-03-23T16:18:53;4.80;;;2.22;;
21733;SDS011;11029;47.820;10.534;2023-03-23T16:21:20;2.33;;;2.13;;
21733;SDS011;11029;47.820;10.534;2023-03-23T16:23:47;6.32;;;4.00;;
21733;SDS011;11029;47.820;10.534;2023-03-23T16:26:14;8.48;;;5.25;;
21733;SDS011;11029;47.820;10.534;2023-03-23T16:28:41;5.88;;;4.22;;
21733;SDS011;11029;47.820;10.534;2023-03-23T16:31:08;3.58;;;2.58;;
21733;SDS011;11029;47.820;10.534;2023-03-23T16:33:35;5.93;;;2.90;;
21733;SDS011;11029;47.820;10.534;2023-03-23T16:36:02;3.83;;;2.10;;
21733;SDS011;11029;47.820;10.534;2023-03-23T16:38:30;3.67;;;2.30;;
21733;SDS011;11029;47.820;10.534;2023-03-23T16:40:56;2.22;;;2.03;;
21733;SDS011;11029;47.820;10.534;2023-03-23T16:43:23;2.45;;;2.25;;
21733;SDS011;11029;47.820;10.534;2023-03-23T16:45:50;3.85;;;2.30;;
21733;SDS011;11029;47.820;10.534;2023-03-23T16:48:21;2.42;;;1.92;;
21733;SDS011;11029;47.820;10.534;2023-03-23T16:50:49;6.25;;;2.60;;
21733;SDS011;11029;47.820;10.534;2023-03-23T16:53:17;4.85;;;3.10;;
21733;SDS011;11029;47.820;10.534;2023-03-23T16:55:44;10.90;;;7.53;;
21733;SDS011;11029;47.820;10.534;2023-03-23T16:58:14;6.80;;;3.92;;
21733;SDS011;11029;47.820;10.534;2023-03-23T17:00:45;3.53;;;2.63;;
21733;SDS011;11029;47.820;10.534;2023-03-23T17:03:14;2.40;;;2.20;;